sensor_id;sensor_type;location;lat;lon;timestamp;pressure;altitude;pressure_sealevel;temperature;humidity
30421;BME280;17218;54.070;10.012;2023-10-13T00:01:53;100984.69;;;11.25;100.00
30421;BME280;17218;54.070;10.012;2023-10-13T00:04:20;100986.41;;;11.25;100.00
30421;BME280;17218;54.070;10.012;2023-10-13T00:06:50;100984.66;;;11.30;100.00
30421;BME280;17218;54.070;10.012;2023-10-13T00:09:17;100983.78;;;11.31;100.00
30421;BME280;17218;54.070;10.012;2023-10-13T00:11:48;100978.56;;;11.36;100.00
30421;BME280;17218;54.070;10.012;2023-10-13T00:14:15;100977.69;;;11.38;100.00
30421;BME280;17218;54.070;10.012;2023-10-13T00:16:43;100979.47;;;11.30;100.00
30421;BME280;17218;54.070;10.012;2023-10-13T00:19:26;100965.59;;;11.34;100.00
30421;BME280;17218;54.070;10.012;2023-10-13T00:21:54;100977.72;;;11.35;100.00
30421;BME280;17218;54.070;10.012;2023-10-13T00:24:21;100968.19;;;11.36;100.00
30421;BME280;17218;54.070;10.012;2023-10-13T00:26:54;100957.00;;;11.29;100.00
30421;BME280;17218;54.070;10.012;2023-10-13T00:29:22;100951.81;;;11.33;100.00
30421;BME280;17218;54.070;10.012;2023-10-13T00:31:55;100953.50;;;11.36;100.00
30421;BME280;17218;54.070;10.012;2023-10-13T00:34:21;100955.19;;;11.42;100.00
30421;BME280;17218;54.070;10.012;2023-10-13T00:36:51;100942.16;;;11.47;100.00
30421;BME280;17218;54.070;10.012;2023-10-13T00:39:33;100941.31;;;11.48;100.00
30421;BME280;17218;54.070;10.012;2023-10-13T00:42:01;100944.75;;;11.51;100.00
30421;BME280;17218;54.070;10.012;2023-10-13T00:44:32;100938.72;;;11.48;100.00
30421;BME280;17218;54.070;10.012;2023-10-13T00:47:08;100936.91;;;11.56;100.00
30421;BME280;17218;54.070;10.012;2023-10-13T00:49:42;100938.56;;;11.63;100.00
30421;BME280;17218;54.070;10.012;2023-10-13T00:52:13;100947.19;;;11.70;100.00
30421;BME280;17218;54.070;10.012;2023-10-13T00:54:42;100936.78;;;11.72;100.00
30421;BME280;17218;54.070;10.012;2023-10-13T00:57:12;100933.31;;;11.76;100.00
30421;BME280;17218;54.070;10.012;2023-10-13T00:59:51;100935.84;;;11.79;100.00
30421;BME280;17218;54.070;10.012;2023-10-13T01:02:18;100926.31;;;11.81;100.00
30421;BME280;17218;54.070;10.012;2023-10-13T01:05:04;100911.56;;;11.86;100.00
30421;BME280;17218;54.070;10.012;2023-10-13T01:07:32;100908.09;;;11.86;100.00
30421;BME280;17218;54.070;10.012;2023-10-13T01:10:04;100900.28;;;11.87;100.00
30421;BME280;17218;54.070;10.012;2023-10-13T01:12:31;100906.38;;;11.86;100.00
30421;BME280;17218;54.070;10.012;2023-10-13T01:14:56;100905.50;;;11.89;100.00
30421;BME280;17218;54.070;10.012;2023-10-13T01:17:24;100908.91;;;11.94;100.00
30421;BME280;17218;54.070;10.012;2023-10-13T01:19:57;100897.59;;;11.97;100.00
30421;BME280;17218;54.070;10.012;2023-10-13T01:22:24;100891.56;;;11.98;100.00
30421;BME280;17218;54.070;10.012;2023-10-13T01:24:50;100889.00;;;11.93;100.00
30421;BME280;17218;54.070;10.012;2023-10-13T01:27:30;100886.41;;;11.91;100.00
30421;BME280;17218;54.070;10.012;2023-10-13T01:29:55;100867.38;;;11.92;100.00
30421;BME280;17218;54.070;10.012;2023-10-13T01:32:24;100879.53;;;11.86;100.00
30421;BME280;17218;54.070;10.012;2023-10-13T01:34:50;100882.13;;;11.87;100.00
30421;BME280;17218;54.070;10.012;2023-10-13T01:37:20;100865.66;;;11.91;100.00
30421;BME280;17218;54.070;10.012;2023-10-13T01:39:47;100863.91;;;11.93;100.00
30421;BME280;17218;54.070;10.012;2023-10-13T01:42:16;100862.16;;;11.96;100.00
30421;BME280;17218;54.070;10.012;2023-10-13T01:44:45;100857.84;;;11.91;100.00
30421;BME280;17218;54.070;10.012;2023-10-13T01:47:10;100862.09;;;11.99;100.00
30421;BME280;17218;54.070;10.012;2023-10-13T01:49:38;100853.44;;;12.01;100.00
30421;BME280;17218;54.070;10.012;2023-10-13T01:52:07;100856.06;;;11.97;100.00
30421;BME280;17218;54.070;10.012;2023-10-13T01:54:37;100845.63;;;12.03;100.00
30421;BME280;17218;54.070;10.012;2023-10-13T01:57:05;100835.25;;;12.01;100.00
30421;BME280;17218;54.070;10.012;2023-10-13T01:59:33;100838.75;;;11.97;100.00
30421;BME280;17218;54.070;10.012;2023-10-13T02:02:03;100834.38;;;12.02;100.00
30421;BME280;17218;54.070;10.012;2023-10-13T02:04:31;100829.19;;;12.01;100.00
30421;BME280;17218;54.070;10.012;2023-10-13T02:07:07;100818.81;;;12.01;100.00
30421;BME280;17218;54.070;10.012;2023-10-13T02:09:40;100825.63;;;12.11;100.00
30421;BME280;17218;54.070;10.012;2023-10-13T02:12:05;100816.94;;;12.15;100.00
30421;BME280;17218;54.070;10.012;2023-10-13T02:14:33;100813.38;;;12.23;100.00
30421;BME280;17218;54.070;10.012;2023-10-13T02:16:59;100807.31;;;12.24;100.00
30421;BME280;17218;54.070;10.012;2023-10-13T02:19:38;100806.56;;;12.15;100.00
30421;BME280;17218;54.070;10.012;2023-10-13T02:22:05;100791.78;;;12.19;100.00
30421;BME280;17218;54.070;10.012;2023-10-13T02:24:35;100791.78;;;12.22;100.00
30421;BME280;17218;54.070;10.012;2023-10-13T02:27:05;100783.03;;;12.26;100.00
30421;BME280;17218;54.070;10.012;2023-10-13T02:29:36;100776.00;;;12.35;100.00
30421;BME280;17218;54.070;10.012;2023-10-13T02:32:04;100767.28;;;12.37;100.00
30421;BME280;17218;54.070;10.012;2023-10-13T02:34:38;100768.06;;;12.46;100.00
30421;BME280;17218;54.070;10.012;2023-10-13T02:37:09;100757.56;;;12.52;100.00
30421;BME280;17218;54.070;10.012;2023-10-13T02:39:36;100758.44;;;12.51;100.00
30421;BME280;17218;54.070;10.012;2023-10-13T02:42:01;100760.13;;;12.55;100.00
30421;BME280;17218;54.070;10.012;2023-10-13T02:44:32;100757.41;;;12.63;100.00
30421;BME280;17218;54.070;10.012;2023-10-13T02:47:03;100757.34;;;12.68;100.00
30421;BME280;17218;54.070;10.012;2023-10-13T02:49:31;100755.44;;;12.76;100.00
30421;BME280;17218;54.070;10.012;2023-10-13T02:51:59;100753.69;;;12.78;100.00
30421;BME280;17218;54.070;10.012;2023-10-13T02:54:30;100742.47;;;12.78;100.00
30421;BME280;17218;54.070;10.012;2023-10-13T02:56:56;100748.59;;;12.73;100.00
30421;BME280;17218;54.070;10.012;2023-10-13T02:59:23;100747.78;;;12.70;100.00
30421;BME280;17218;54.070;10.012;2023-10-13T03:01:59;100735.50;;;12.78;100.00
30421;BME280;17218;54.070;10.012;2023-10-13T03:04:33;100737.09;;;12.85;100.00
30421;BME280;17218;54.070;10.012;2023-10-13T03:06:59;100729.34;;;12.84;100.00
30421;BME280;17218;54.070;10.012;2023-10-13T03:09:25;100724.28;;;12.74;100.00
30421;BME280;17218;54.070;10.012;2023-10-13T03:11:51;100728.63;;;12.75;100.00
30421;BME280;17218;54.070;10.012;2023-10-13T03:14:19;100726.81;;;12.79;100.00
30421;BME280;17218;54.070;10.012;2023-10-13T03:16:50;100717.16;;;12.87;100.00
30421;BME280;17218;54.070;10.012;2023-10-13T03:19:16;100722.31;;;12.91;100.00
30421;BME280;17218;54.070;10.012;2023-10-13T03:21:45;100704.94;;;12.91;100.00
30421;BME280;17218;54.070;10.012;2023-10-13T03:24:20;100708.34;;;12.95;100.00
30421;BME280;17218;54.070;10.012;2023-10-13T03:26:48;100694.56;;;12.91;100.00
30421;BME280;17218;54.070;10.012;2023-10-13T03:29:17;100701.31;;;13.00;100.00
30421;BME280;17218;54.070;10.012;2023-10-13T03:31:47;100690.84;;;13.05;100.00
30421;BME280;17218;54.070;10.012;2023-10-13T03:34:31;100679.47;;;13.10;100.00
30421;BME280;17218;54.070;10.012;2023-10-13T03:40:36;100671.53;;;13.18;100.00
30421;BME280;17218;54.070;10.012;2023-10-13T03:43:04;100684.38;;;13.26;100.00
30421;BME280;17218;54.070;10.012;2023-10-13T03:45:34;100684.31;;;13.31;100.00
30421;BME280;17218;54.070;10.012;2023-10-13T03:48:05;100669.53;;;13.33;100.00
30421;BME280;17218;54.070;10.012;2023-10-13T03:50:35;100649.63;;;13.30;100.00
30421;BME280;17218;54.070;10.012;2023-10-13T03:53:02;100659.16;;;13.31;100.00
30421;BME280;17218;54.070;10.012;2023-10-13T03:55:31;100644.34;;;13.33;100.00
30421;BME280;17218;54.070;10.012;2023-10-13T03:58:01;100635.59;;;13.38;100.00
30421;BME280;17218;54.070;10.012;2023-10-13T04:00:29;100628.53;;;13.43;100.00
30421;BME280;17218;54.070;10.012;2023-10-13T04:02:57;100631.09;;;13.46;100.00
30421;BME280;17218;54.070;10.012;2023-10-13T04:05:35;100628.47;;;13.47;100.00
30421;BME280;17218;54.070;10.012;2023-10-13T04:08:06;100622.34;;;13.48;100.00
30421;BME280;17218;54.070;10.012;2023-10-13T04:10:51;100624.97;;;13.48;100.00
30421;BME280;17218;54.070;10.012;2023-10-13T04:13:36;100623.28;;;13.46;100.00
30421;BME280;17218;54.070;10.012;2023-10-13T04:16:20;100617.94;;;13.54;100.00
30421;BME280;17218;54.070;10.012;2023-10-13T04:19:16;100621.41;;;13.54;100.00
30421;BME280;17218;54.070;10.012;2023-10-13T04:21:48;100617.03;;;13.56;100.00
30421;BME280;17218;54.070;10.012;2023-10-13T04:24:25;100611.78;;;13.58;100.00
30421;BME280;17218;54.070;10.012;2023-10-13T04:27:06;100612.69;;;13.57;100.00
30421;BME280;17218;54.070;10.012;2023-10-13T04:29:56;100612.50;;;13.65;100.00
30421;BME280;17218;54.070;10.012;2023-10-13T04:32:36;100602.91;;;13.68;100.00
30421;BME280;17218;54.070;10.012;2023-10-13T04:35:07;100597.56;;;13.73;100.00
30421;BME280;17218;54.070;10.012;2023-10-13T04:37:43;100591.41;;;13.77;100.00
30421;BME280;17218;54.070;10.012;2023-10-13T04:40:20;100580.00;;;13.81;100.00
30421;BME280;17218;54.070;10.012;2023-10-13T04:42:50;100582.47;;;13.88;100.00
30421;BME280;17218;54.070;10.012;2023-10-13T04:45:20;100576.41;;;13.87;100.00
30421;BME280;17218;54.070;10.012;2023-10-13T04:48:12;100565.16;;;13.85;100.00
30421;BME280;17218;54.070;10.012;2023-10-13T04:50:59;100562.47;;;13.90;100.00
30421;BME280;17218;54.070;10.012;2023-10-13T04:53:40;100560.97;;;13.81;100.00
30421;BME280;17218;54.070;10.012;2023-10-13T04:56:25;100561.50;;;13.94;100.00
30421;BME280;17218;54.070;10.012;2023-10-13T04:59:14;100538.72;;;14.02;100.00
30421;BME280;17218;54.070;10.012;2023-10-13T05:01:44;100529.97;;;14.06;100.00
30421;BME280;17218;54.070;10.012;2023-10-13T05:04:30;100521.22;;;14.07;100.00
30421;BME280;17218;54.070;10.012;2023-10-13T05:07:04;100526.38;;;14.11;100.00
30421;BME280;17218;54.070;10.012;2023-10-13T05:09:48;100515.78;;;14.17;100.00
30421;BME280;17218;54.070;10.012;2023-10-13T05:12:32;100512.22;;;14.21;100.00
30421;BME280;17218;54.070;10.012;2023-10-13T05:15:30;100506.09;;;14.24;100.00
30421;BME280;17218;54.070;10.012;2023-10-13T05:18:16;100496.38;;;14.29;100.00
30421;BME280;17218;54.070;10.012;2023-10-13T05:21:00;100504.16;;;14.30;100.00
30421;BME280;17218;54.070;10.012;2023-10-13T05:23:44;100494.63;;;14.29;100.00
30421;BME280;17218;54.070;10.012;2023-10-13T05:26:28;100494.47;;;14.36;100.00
30421;BME280;17218;54.070;10.012;2023-10-13T05:29:12;100487.31;;;14.42;100.00
30421;BME280;17218;54.070;10.012;2023-10-13T05:31:56;100492.53;;;14.44;100.00
30421;BME280;17218;54.070;10.012;2023-10-13T05:34:42;100486.25;;;14.50;100.00
30421;BME280;17218;54.070;10.012;2023-10-13T05:37:26;100478.41;;;14.51;100.00
30421;BME280;17218;54.070;10.012;2023-10-13T05:40:10;100476.44;;;14.60;100.00
30421;BME280;17218;54.070;10.012;2023-10-13T05:42:54;100471.88;;;14.66;100.00
30421;BME280;17218;54.070;10.012;2023-10-13T05:45:38;100481.34;;;14.71;100.00
30421;BME280;17218;54.070;10.012;2023-10-13T05:48:26;100477.72;;;14.76;100.00
30421;BME280;17218;54.070;10.012;2023-10-13T05:51:09;100475.88;;;14.80;100.00
30421;BME280;17218;54.070;10.012;2023-10-13T05:53:53;100477.47;;;14.86;100.00
30421;BME280;17218;54.070;10.012;2023-10-13T05:56:36;100474.88;;;14.86;100.00
30421;BME280;17218;54.070;10.012;2023-10-13T05:59:36;100463.53;;;14.87;100.00
30421;BME280;17218;54.070;10.012;2023-10-13T06:02:21;100481.59;;;14.93;100.00
30421;BME280;17218;54.070;10.012;2023-10-13T06:05:07;100475.41;;;14.97;100.00
30421;BME280;17218;54.070;10.012;2023-10-13T06:07:53;100475.25;;;15.02;100.00
30421;BME280;17218;54.070;10.012;2023-10-13T06:10:37;100475.19;;;15.05;100.00
30421;BME280;17218;54.070;10.012;2023-10-13T06:13:22;100479.31;;;15.11;100.00
30421;BME280;17218;54.070;10.012;2023-10-13T06:16:06;100469.63;;;15.16;100.00
30421;BME280;17218;54.070;10.012;2023-10-13T06:18:50;100467.84;;;15.18;100.00
30421;BME280;17218;54.070;10.012;2023-10-13T06:21:34;100469.38;;;15.24;100.00
30421;BME280;17218;54.070;10.012;2023-10-13T06:24:19;100474.41;;;15.30;100.00
30421;BME280;17218;54.070;10.012;2023-10-13T06:27:03;100466.41;;;15.36;100.00
30421;BME280;17218;54.070;10.012;2023-10-13T06:29:47;100469.66;;;15.43;100.00
30421;BME280;17218;54.070;10.012;2023-10-13T06:32:14;100460.97;;;15.43;100.00
30421;BME280;17218;54.070;10.012;2023-10-13T06:34:41;100466.13;;;15.44;100.00
30421;BME280;17218;54.070;10.012;2023-10-13T06:37:10;100457.41;;;15.45;100.00
30421;BME280;17218;54.070;10.012;2023-10-13T06:39:49;100452.88;;;15.50;100.00
30421;BME280;17218;54.070;10.012;2023-10-13T06:42:16;100444.94;;;15.54;100.00
30421;BME280;17218;54.070;10.012;2023-10-13T06:44:44;100452.59;;;15.60;100.00
30421;BME280;17218;54.070;10.012;2023-10-13T06:47:12;100447.19;;;15.65;100.00
30421;BME280;17218;54.070;10.012;2023-10-13T06:49:39;100443.41;;;15.75;100.00
30421;BME280;17218;54.070;10.012;2023-10-13T06:52:08;100434.59;;;15.78;100.00
30421;BME280;17218;54.070;10.012;2023-10-13T06:54:35;100435.50;;;15.77;100.00
30421;BME280;17218;54.070;10.012;2023-10-13T06:57:03;100436.50;;;15.72;100.00
30421;BME280;17218;54.070;10.012;2023-10-13T06:59:32;100444.09;;;15.80;100.00
30421;BME280;17218;54.070;10.012;2023-10-13T07:02:00;100433.59;;;15.82;100.00
30421;BME280;17218;54.070;10.012;2023-10-13T07:04:30;100428.41;;;15.80;100.00
30421;BME280;17218;54.070;10.012;2023-10-13T07:06:57;100430.84;;;15.85;100.00
30421;BME280;17218;54.070;10.012;2023-10-13T07:09:26;100421.22;;;15.87;100.00
30421;BME280;17218;54.070;10.012;2023-10-13T07:12:07;100421.91;;;15.92;100.00
30421;BME280;17218;54.070;10.012;2023-10-13T07:14:45;100406.97;;;15.96;100.00
30421;BME280;17218;54.070;10.012;2023-10-13T07:17:17;100408.84;;;15.92;100.00
30421;BME280;17218;54.070;10.012;2023-10-13T07:19:49;100408.75;;;15.95;100.00
30421;BME280;17218;54.070;10.012;2023-10-13T07:22:19;100402.38;;;16.04;100.00
30421;BME280;17218;54.070;10.012;2023-10-13T07:24:46;100401.50;;;16.04;100.00
30421;BME280;17218;54.070;10.012;2023-10-13T07:27:15;100389.38;;;16.03;100.00
30421;BME280;17218;54.070;10.012;2023-10-13T07:29:48;100385.69;;;16.08;100.00
30421;BME280;17218;54.070;10.012;2023-10-13T07:32:21;100380.28;;;16.13;100.00
30421;BME280;17218;54.070;10.012;2023-10-13T07:34:52;100369.69;;;16.18;100.00
30421;BME280;17218;54.070;10.012;2023-10-13T07:37:20;100357.22;;;16.25;100.00
30421;BME280;17218;54.070;10.012;2023-10-13T07:39:50;100359.50;;;16.34;100.00
30421;BME280;17218;54.070;10.012;2023-10-13T07:42:18;100342.09;;;16.33;100.00
30421;BME280;17218;54.070;10.012;2023-10-13T07:44:47;100341.94;;;16.38;100.00
30421;BME280;17218;54.070;10.012;2023-10-13T07:47:13;100330.50;;;16.40;100.00
30421;BME280;17218;54.070;10.012;2023-10-13T07:49:43;100329.94;;;16.32;100.00
30421;BME280;17218;54.070;10.012;2023-10-13T07:52:11;100326.81;;;16.22;100.00
30421;BME280;17218;54.070;10.012;2023-10-13T07:54:50;100333.59;;;16.28;100.00
30421;BME280;17218;54.070;10.012;2023-10-13T07:57:26;100330.69;;;16.36;100.00
30421;BME280;17218;54.070;10.012;2023-10-13T07:59:55;100319.22;;;16.40;100.00
30421;BME280;17218;54.070;10.012;2023-10-13T08:02:33;100319.28;;;16.38;100.00
30421;BME280;17218;54.070;10.012;2023-10-13T08:05:14;100310.56;;;16.38;100.00
30421;BME280;17218;54.070;10.012;2023-10-13T08:07:51;100309.72;;;16.37;100.00
30421;BME280;17218;54.070;10.012;2023-10-13T08:10:18;100318.34;;;16.39;100.00
30421;BME280;17218;54.070;10.012;2023-10-13T08:12:51;100314.78;;;16.42;100.00
30421;BME280;17218;54.070;10.012;2023-10-13T08:15:20;100308.81;;;16.38;100.00
30421;BME280;17218;54.070;10.012;2023-10-13T08:17:57;100310.28;;;16.45;100.00
30421;BME280;17218;54.070;10.012;2023-10-13T08:20:24;100297.63;;;16.57;100.00
30421;BME280;17218;54.070;10.012;2023-10-13T08:22:55;100295.78;;;16.59;100.00
30421;BME280;17218;54.070;10.012;2023-10-13T08:25:38;100276.91;;;16.52;100.00
30421;BME280;17218;54.070;10.012;2023-10-13T08:28:20;100286.44;;;16.53;100.00
30421;BME280;17218;54.070;10.012;2023-10-13T08:31:04;100285.69;;;16.50;100.00
30421;BME280;17218;54.070;10.012;2023-10-13T08:33:39;100299.69;;;16.49;100.00
30421;BME280;17218;54.070;10.012;2023-10-13T08:36:12;100278.66;;;16.52;100.00
30421;BME280;17218;54.070;10.012;2023-10-13T08:38:53;100271.72;;;16.51;100.00
30421;BME280;17218;54.070;10.012;2023-10-13T08:41:20;100283.28;;;16.45;100.00
30421;BME280;17218;54.070;10.012;2023-10-13T08:44:02;100277.19;;;16.44;100.00
30421;BME280;17218;54.070;10.012;2023-10-13T08:46:33;100278.78;;;16.49;100.00
30421;BME280;17218;54.070;10.012;2023-10-13T08:49:29;100271.72;;;16.51;100.00
30421;BME280;17218;54.070;10.012;2023-10-13T08:51:58;100270.00;;;16.50;100.00
30421;BME280;17218;54.070;10.012;2023-10-13T08:54:53;100278.66;;;16.52;100.00
30421;BME280;17218;54.070;10.012;2023-10-13T08:57:39;100261.06;;;16.55;100.00
30421;BME280;17218;54.070;10.012;2023-10-13T09:00:09;100256.84;;;16.53;100.00
30421;BME280;17218;54.070;10.012;2023-10-13T09:02:53;100251.84;;;16.47;100.00
30421;BME280;17218;54.070;10.012;2023-10-13T09:05:33;100246.47;;;16.50;100.00
30421;BME280;17218;54.070;10.012;2023-10-13T09:08:08;100238.47;;;16.54;100.00
30421;BME280;17218;54.070;10.012;2023-10-13T09:10:35;100235.66;;;16.59;100.00
30421;BME280;17218;54.070;10.012;2023-10-13T09:13:10;100238.34;;;16.57;100.00
30421;BME280;17218;54.070;10.012;2023-10-13T09:15:38;100227.09;;;16.55;100.00
30421;BME280;17218;54.070;10.012;2023-10-13T09:18:25;100213.34;;;16.50;100.00
30421;BME280;17218;54.070;10.012;2023-10-13T09:21:14;100215.44;;;16.42;100.00
30421;BME280;17218;54.070;10.012;2023-10-13T09:23:54;100212.69;;;16.45;100.00
30421;BME280;17218;54.070;10.012;2023-10-13T09:26:41;100198.97;;;16.40;100.00
30421;BME280;17218;54.070;10.012;2023-10-13T09:29:17;100207.47;;;16.45;100.00
30421;BME280;17218;54.070;10.012;2023-10-13T09:31:46;100196.81;;;16.50;100.00
30421;BME280;17218;54.070;10.012;2023-10-13T09:34:20;100195.00;;;16.52;100.00
30421;BME280;17218;54.070;10.012;2023-10-13T09:36:47;100197.44;;;16.56;100.00
30421;BME280;17218;54.070;10.012;2023-10-13T09:39:23;100197.53;;;16.53;100.00
30421;BME280;17218;54.070;10.012;2023-10-13T09:41:59;100198.25;;;16.57;100.00
30421;BME280;17218;54.070;10.012;2023-10-13T09:44:25;100183.75;;;16.50;100.00
30421;BME280;17218;54.070;10.012;2023-10-13T09:47:00;100187.16;;;16.52;100.00
30421;BME280;17218;54.070;10.012;2023-10-13T09:49:35;100196.00;;;16.49;100.00
30421;BME280;17218;54.070;10.012;2023-10-13T09:52:13;100185.63;;;16.46;100.00
30421;BME280;17218;54.070;10.012;2023-10-13T09:54:51;100183.75;;;16.50;100.00
30421;BME280;17218;54.070;10.012;2023-10-13T09:57:28;100187.09;;;16.53;100.00
30421;BME280;17218;54.070;10.012;2023-10-13T10:00:06;100188.28;;;16.67;100.00
30421;BME280;17218;54.070;10.012;2023-10-13T10:02:42;100180.06;;;16.76;100.00
30421;BME280;17218;54.070;10.012;2023-10-13T10:05:09;100181.75;;;16.77;100.00
30421;BME280;17218;54.070;10.012;2023-10-13T10:07:54;100171.16;;;16.80;100.00
30421;BME280;17218;54.070;10.012;2023-10-13T10:10:21;100170.97;;;16.85;100.00
30421;BME280;17218;54.070;10.012;2023-10-13T10:12:52;100163.72;;;16.92;100.00
30421;BME280;17218;54.070;10.012;2023-10-13T10:15:25;100149.50;;;16.98;100.00
30421;BME280;17218;54.070;10.012;2023-10-13T10:17:57;100137.50;;;16.93;100.00
30421;BME280;17218;54.070;10.012;2023-10-13T10:20:30;100135.97;;;16.88;100.00
30421;BME280;17218;54.070;10.012;2023-10-13T10:23:05;100124.66;;;16.87;100.00
30421;BME280;17218;54.070;10.012;2023-10-13T10:25:38;100108.50;;;16.77;100.00
30421;BME280;17218;54.070;10.012;2023-10-13T10:28:09;100113.03;;;16.74;100.00
30421;BME280;17218;54.070;10.012;2023-10-13T10:30:41;100112.84;;;16.78;100.00
30421;BME280;17218;54.070;10.012;2023-10-13T10:33:11;100087.53;;;16.79;100.00
30421;BME280;17218;54.070;10.012;2023-10-13T10:35:39;100075.38;;;16.78;100.00
30421;BME280;17218;54.070;10.012;2023-10-13T10:38:10;100083.03;;;16.83;100.00
30421;BME280;17218;54.070;10.012;2023-10-13T10:40:53;100081.06;;;16.88;100.00
30421;BME280;17218;54.070;10.012;2023-10-13T10:43:25;100069.53;;;16.92;100.00
30421;BME280;17218;54.070;10.012;2023-10-13T10:45:53;100070.19;;;16.97;100.00
30421;BME280;17218;54.070;10.012;2023-10-13T10:48:26;100070.81;;;17.02;100.00
30421;BME280;17218;54.070;10.012;2023-10-13T10:50:58;100064.88;;;16.99;100.00
30421;BME280;17218;54.070;10.012;2023-10-13T10:53:33;100069.78;;;17.07;100.00
30421;BME280;17218;54.070;10.012;2023-10-13T10:56:09;100050.06;;;17.19;100.00
30421;BME280;17218;54.070;10.012;2023-10-13T10:58:46;100033.38;;;17.21;100.00
30421;BME280;17218;54.070;10.012;2023-10-13T11:01:12;100018.97;;;17.12;100.00
30421;BME280;17218;54.070;10.012;2023-10-13T11:03:54;100018.25;;;17.07;100.00
30421;BME280;17218;54.070;10.012;2023-10-13T11:06:22;100020.88;;;17.07;100.00
30421;BME280;17218;54.070;10.012;2023-10-13T11:09:01;100006.81;;;17.10;100.00
30421;BME280;17218;54.070;10.012;2023-10-13T11:11:29;99997.00;;;17.15;100.00
30421;BME280;17218;54.070;10.012;2023-10-13T11:14:00;100002.16;;;17.16;100.00
30421;BME280;17218;54.070;10.012;2023-10-13T11:16:45;99985.00;;;17.11;100.00
30421;BME280;17218;54.070;10.012;2023-10-13T11:19:17;99973.47;;;17.15;100.00
30421;BME280;17218;54.070;10.012;2023-10-13T11:21:51;99966.88;;;17.25;100.00
30421;BME280;17218;54.070;10.012;2023-10-13T11:24:17;99948.41;;;17.28;100.00
30421;BME280;17218;54.070;10.012;2023-10-13T11:26:47;99945.44;;;17.36;100.00
30421;BME280;17218;54.070;10.012;2023-10-13T11:29:18;99928.19;;;17.32;100.00
30421;BME280;17218;54.070;10.012;2023-10-13T11:31:48;99931.69;;;17.31;100.00
30421;BME280;17218;54.070;10.012;2023-10-13T11:34:25;99923.63;;;17.36;100.00
30421;BME280;17218;54.070;10.012;2023-10-13T11:37:05;99899.78;;;17.60;100.00
30421;BME280;17218;54.070;10.012;2023-10-13T11:39:51;99943.47;;;17.77;100.00
30421;BME280;17218;54.070;10.012;2023-10-13T11:42:18;99908.00;;;17.87;100.00
30421;BME280;17218;54.070;10.012;2023-10-13T11:44:44;99909.59;;;17.90;100.00
30421;BME280;17218;54.070;10.012;2023-10-13T11:47:11;99900.06;;;17.89;100.00
30421;BME280;17218;54.070;10.012;2023-10-13T11:50:13;99888.63;;;17.90;100.00
30421;BME280;17218;54.070;10.012;2023-10-13T11:52:52;99868.94;;;17.83;100.00
30421;BME280;17218;54.070;10.012;2023-10-13T11:55:18;99872.75;;;17.77;100.00
30421;BME280;17218;54.070;10.012;2023-10-13T11:57:45;99875.84;;;17.68;100.00
30421;BME280;17218;54.070;10.012;2023-10-13T12:00:13;99879.97;;;17.72;100.00
30421;BME280;17218;54.070;10.012;2023-10-13T12:02:51;99881.41;;;17.77;100.00
30421;BME280;17218;54.070;10.012;2023-10-13T12:05:51;99866.00;;;17.89;100.00
30421;BME280;17218;54.070;10.012;2023-10-13T12:08:42;99869.47;;;17.90;100.00
30421;BME280;17218;54.070;10.012;2023-10-13T12:11:14;99869.81;;;17.99;100.00
30421;BME280;17218;54.070;10.012;2023-10-13T12:13:55;99865.38;;;18.35;100.00
30421;BME280;17218;54.070;10.012;2023-10-13T12:16:21;99866.78;;;18.74;100.00
30421;BME280;17218;54.070;10.012;2023-10-13T12:18:48;99832.94;;;18.85;100.00
30421;BME280;17218;54.070;10.012;2023-10-13T12:21:20;99817.09;;;18.87;100.00
30421;BME280;17218;54.070;10.012;2023-10-13T12:23:46;99803.59;;;18.78;100.00
30421;BME280;17218;54.070;10.012;2023-10-13T12:26:15;99812.66;;;18.73;100.00
30421;BME280;17218;54.070;10.012;2023-10-13T12:28:45;99788.69;;;18.79;100.00
30421;BME280;17218;54.070;10.012;2023-10-13T12:31:16;99793.25;;;18.91;100.00
30421;BME280;17218;54.070;10.012;2023-10-13T12:33:52;99789.16;;;19.02;100.00
30421;BME280;17218;54.070;10.012;2023-10-13T12:36:19;99780.59;;;19.29;100.00
30421;BME280;17218;54.070;10.012;2023-10-13T12:38:56;99752.50;;;19.46;100.00
30421;BME280;17218;54.070;10.012;2023-10-13T12:41:46;99733.66;;;19.53;100.00
30421;BME280;17218;54.070;10.012;2023-10-13T12:44:30;99743.59;;;19.48;100.00
30421;BME280;17218;54.070;10.012;2023-10-13T12:47:14;99736.06;;;19.42;100.00
30421;BME280;17218;54.070;10.012;2023-10-13T12:49:58;99741.53;;;19.39;100.00
30421;BME280;17218;54.070;10.012;2023-10-13T12:52:32;99745.34;;;19.33;100.00
30421;BME280;17218;54.070;10.012;2023-10-13T12:54:58;99768.13;;;19.33;100.00
30421;BME280;17218;54.070;10.012;2023-10-13T12:57:31;99752.97;;;19.38;100.00
30421;BME280;17218;54.070;10.012;2023-10-13T12:59:58;99743.13;;;19.41;100.00
30421;BME280;17218;54.070;10.012;2023-10-13T13:02:25;99734.59;;;19.38;100.00
30421;BME280;17218;54.070;10.012;2023-10-13T13:04:52;99727.94;;;19.32;100.00
30421;BME280;17218;54.070;10.012;2023-10-13T13:07:22;99734.75;;;19.49;100.00
30421;BME280;17218;54.070;10.012;2023-10-13T13:09:55;99743.38;;;19.66;100.00